This is the latest recevied weather packets stored in our database for station/object VK3HAG. If no packets are shown the sender has not sent any weather packets the latest 1 day(s).
| Time | Temp. | Humidity | Pressure | Rain* | Wind** | Luminosity | Snow |
|---|---|---|---|---|---|---|---|
| 1836274678 | 16.67° C | 50% | 1009.8 hPa | 0 mm | 0 m/s | - | - |
| 1778046304 | 17.78° C | 62% | 1014 hPa | 0 mm | 0 m/s | - | - |
| 1778045405 | 17.78° C | 61% | 1014.2 hPa | 0 mm | 0 m/s | - | - |
| 1778044504 | 17.78° C | 60% | 1014.4 hPa | 0 mm | 0 m/s | - | - |
| 1778043605 | 17.78° C | 60% | 1014.5 hPa | 0 mm | 0 m/s | - | - |
| 1778042704 | 16.67° C | 62% | 1014.8 hPa | 0 mm | 0 m/s | - | - |
| 1778041805 | 17.78° C | 61% | 1015 hPa | 0 mm | 0 m/s | - | - |
| 1778040904 | 18.33° C | 60% | 1015.1 hPa | 0 mm | 0 m/s | - | - |
| 1778040004 | 18.33° C | 61% | 1015.3 hPa | 0 mm | 0 m/s | - | - |
| 1778039104 | 17.78° C | 62% | 1015.5 hPa | 0 mm | 0 m/s | - | - |
| 1778038204 | 17.78° C | 61% | 1015.6 hPa | 0 mm | 0 m/s | - | - |
| 1778037305 | 17.78° C | 64% | 1015.9 hPa | 0 mm | 0 m/s | - | - |
| 1778036404 | 17.22° C | 63% | 1016.2 hPa | 0 mm | 0 m/s | - | - |
| 1778035504 | 16.67° C | 64% | 1016.4 hPa | 0 mm | 0 m/s | - | - |
| 1778034604 | 16.67° C | 65% | 1016.7 hPa | 0 mm | 0 m/s | - | - |
| 1778033704 | 16.67° C | 65% | 1017.1 hPa | 0 mm | 0 m/s | - | - |
| 1778032804 | 16.67° C | 65% | 1017.4 hPa | 0 mm | 0 m/s | - | - |
| 1778031904 | 16.11° C | 68% | 1017.7 hPa | 0 mm | 0 m/s | - | - |
| 1778031004 | 15.56° C | 67% | 1017.9 hPa | 0 mm | 0 m/s | - | - |
| 1778030105 | 16.11° C | 66% | 1018.1 hPa | 0 mm | 0 m/s | - | - |
| 1778029205 | 16.11° C | 66% | 1018.3 hPa | 0 mm | 0 m/s | - | - |
| 1778028304 | 16.11° C | 66% | 1018.3 hPa | 0 mm | 0 m/s | - | - |
| 1778027405 | 15.56° C | 67% | 1018.5 hPa | 0 mm | 0 m/s | - | - |
| 1778026504 | 15.56° C | 67% | 1018.7 hPa | 0 mm | 0 m/s | - | - |
| 1778025604 | 15.56° C | 68% | 1018.7 hPa | 0 mm | 0 m/s | - | - |
* Rain latest hour (hover to see other rain measurements)
** Current wind speed in m/s (hover to see current wind gust speed)